Time;durP1;ratioP1;P1;durP2;ratioP2;P2;SDS_P1;SDS_P2;PMS_P1;PMS_P2;Temp;Humidity;BMP_temperature;BMP_pressure;BME280_temperature;BME280_humidity;BME280_pressure;Samples;Min_cycle;Max_cycle;Signal;HPM_P1;HPM_P2
2022/01/17 00:01:15;;;;;;;25.67;12.88;;;;;;;1.51;100.00;100852.38;5076134;28;20044;-71
2022/01/17 00:03:44;;;;;;;30.05;13.98;;;;;;;1.53;100.00;100849.72;5075853;28;20040;-70
2022/01/17 00:06:14;;;;;;;30.52;14.10;;;;;;;1.62;100.00;100849.59;5075836;28;20045;-70
2022/01/17 00:08:44;;;;;;;30.63;14.77;;;;;;;1.63;100.00;100843.44;5076011;28;20051;-71
2022/01/17 00:11:14;;;;;;;22.15;10.23;;;;;;;1.64;100.00;100827.69;5075438;28;20052;-70
2022/01/17 00:13:44;;;;;;;27.30;13.68;;;;;;;1.72;100.00;100835.44;5076044;28;20040;-70
2022/01/17 00:16:15;;;;;;;24.85;11.70;;;;;;;1.80;100.00;100843.22;5075587;28;20040;-70
2022/01/17 00:21:30;;;;;;;29.17;13.40;;;;;;;1.75;100.00;100840.66;5076176;28;20045;-70
2022/01/17 00:23:58;;;;;;;23.52;10.93;;;;;;;1.80;100.00;100838.81;5076256;28;20062;-71
2022/01/17 00:26:28;;;;;;;27.05;13.50;;;;;;;1.75;100.00;100839.78;5074870;28;20048;-71
2022/01/17 00:28:56;;;;;;;27.90;13.63;;;;;;;1.85;100.00;100849.28;5075285;28;20044;-70
2022/01/17 00:31:24;;;;;;;31.17;14.63;;;;;;;1.88;100.00;100849.22;5075977;28;20036;-71
2022/01/17 00:33:53;;;;;;;31.27;13.95;;;;;;;1.86;100.00;100848.41;5075275;28;20064;-70
2022/01/17 00:36:21;;;;;;;31.17;14.43;;;;;;;1.81;100.00;100844.94;5075587;28;20059;-71
2022/01/17 00:38:49;;;;;;;29.15;14.02;;;;;;;1.79;100.00;100852.00;5075398;28;20042;-74
2022/01/17 00:41:17;;;;;;;32.58;13.32;;;;;;;1.90;100.00;100855.34;5075543;28;20090;-72
2022/01/17 00:43:47;;;;;;;33.45;15.15;;;;;;;1.87;100.00;100855.38;5075542;28;20098;-72
2022/01/17 00:46:15;;;;;;;31.15;15.20;;;;;;;1.93;100.00;100850.91;5075542;28;20043;-72
2022/01/17 00:48:44;;;;;;;32.03;14.52;;;;;;;1.84;100.00;100851.06;5075226;28;20509;-72
2022/01/17 00:51:12;;;;;;;31.17;13.95;;;;;;;1.93;100.00;100860.53;5074839;28;20476;-72
2022/01/17 00:53:41;;;;;;;32.80;15.02;;;;;;;1.84;100.00;100860.69;5075164;28;20534;-72
2022/01/17 00:56:09;;;;;;;30.13;14.75;;;;;;;1.90;100.00;100863.22;5074581;28;20109;-70
2022/01/17 00:58:38;;;;;;;32.40;15.23;;;;;;;1.90;100.00;100850.06;5075135;28;20037;-71
2022/01/17 01:01:07;;;;;;;33.90;14.85;;;;;;;1.86;100.00;100851.03;5074788;28;20146;-72
2022/01/17 01:03:36;;;;;;;32.63;15.18;;;;;;;1.94;100.00;100851.78;5075097;28;20439;-72
2022/01/17 01:06:05;;;;;;;32.50;15.73;;;;;;;1.95;100.00;100864.03;5074694;28;20044;-71
2022/01/17 01:08:33;;;;;;;32.40;15.95;;;;;;;1.97;100.00;100851.72;5074918;28;20115;-70
2022/01/17 01:11:02;;;;;;;29.67;15.38;;;;;;;1.97;100.00;100835.94;5074268;28;20063;-70
2022/01/17 01:13:31;;;;;;;29.55;15.38;;;;;;;1.98;100.00;100838.53;5074661;28;20053;-71
2022/01/17 01:16:21;;;;;;;31.05;16.30;;;;;;;2.07;100.00;100848.06;5074498;28;20067;-70
2022/01/17 01:29:55;;;;;;;30.38;16.13;;;;;;;2.14;100.00;100838.31;5074608;28;20044;-70
2022/01/17 01:32:29;;;;;;;29.73;14.65;;;;;;;2.07;100.00;100834.91;5074049;28;20138;-68
2022/01/17 01:35:00;;;;;;;33.53;16.63;;;;;;;2.05;100.00;100818.28;5074006;28;20123;-69
2022/01/17 01:37:28;;;;;;;30.52;14.35;;;;;;;2.04;100.00;100827.06;5074912;28;20052;-69
2022/01/17 01:39:57;;;;;;;30.40;15.23;;;;;;;1.99;100.00;100813.09;5073970;28;20493;-69
2022/01/17 01:42:28;;;;;;;31.58;16.02;;;;;;;1.99;100.00;100813.09;5074323;28;20052;-68
2022/01/17 01:44:58;;;;;;;;;;;;;;;1.99;100.00;100810.47;5074435;28;20094;-76
2022/01/17 01:47:28;;;;;;;29.80;14.43;;;;;;;1.99;100.00;100807.84;5074212;28;19921;-74
2022/01/17 01:49:56;;;;;;;31.92;14.35;;;;;;;2.05;100.00;100807.75;5073443;28;20135;-73
2022/01/17 01:52:26;;;;;;;26.90;13.60;;;;;;;2.06;100.00;100809.47;5073566;28;20040;-74
2022/01/17 01:54:54;;;;;;;28.50;13.63;;;;;;;2.10;100.00;100803.25;5055747;28;20072;-73
2022/01/17 01:57:24;;;;;;;30.85;14.65;;;;;;;2.11;100.00;100812.00;5074036;28;20044;-74
2022/01/17 01:59:53;;;;;;;29.55;14.40;;;;;;;2.10;100.00;100802.38;5073936;28;20102;-74
2022/01/17 02:02:21;;;;;;;23.33;12.73;;;;;;;2.18;100.00;100808.41;5074237;28;20037;-70
2022/01/17 02:04:50;;;;;;;25.92;12.85;;;;;;;2.24;100.00;100803.91;5073882;28;20473;-70
2022/01/17 02:07:20;;;;;;;29.60;14.07;;;;;;;2.21;100.00;100803.94;5073470;28;20094;-70
2022/01/17 02:09:49;;;;;;;24.60;13.27;;;;;;;2.28;100.00;100815.25;5073480;28;20119;-70
2022/01/17 02:12:21;;;;;;;23.50;11.13;;;;;;;2.29;100.00;100804.69;5073266;28;20094;-70
2022/01/17 02:14:50;;;;;;;25.15;13.38;;;;;;;2.29;100.00;100804.69;5073528;28;20044;-70
2022/01/17 02:17:20;;;;;;;23.10;10.57;;;;;;;2.38;100.00;100790.47;5072912;28;20481;-69
2022/01/17 02:19:53;;;;;;;24.80;12.13;;;;;;;2.34;100.00;100788.81;5073314;28;20452;-70
2022/01/17 02:22:21;;;;;;;23.75;11.60;;;;;;;2.36;100.00;100784.38;5073139;28;20047;-71
2022/01/17 02:24:50;;;;;;;21.95;12.18;;;;;;;2.45;100.00;100775.44;5073535;28;20048;-71
2022/01/17 02:27:18;;;;;;;18.90;9.57;;;;;;;2.47;100.00;100779.78;5072876;28;20091;-71
2022/01/17 02:29:46;;;;;;;23.92;12.75;;;;;;;2.40;100.00;100787.81;5073479;28;20052;-70
2022/01/17 02:32:14;;;;;;;22.45;12.13;;;;;;;2.36;100.00;100786.16;5072746;28;20037;-71
2022/01/17 02:34:44;;;;;;;22.00;11.43;;;;;;;2.35;100.00;100780.03;5073278;28;20127;-71
2022/01/17 02:37:15;;;;;;;22.30;11.30;;;;;;;2.41;100.00;100794.81;5073280;28;20501;-71
2022/01/17 02:39:43;;;;;;;23.70;11.82;;;;;;;2.42;100.00;100786.06;5073440;28;20047;-71
2022/01/17 02:42:15;;;;;;;20.48;10.98;;;;;;;2.49;100.00;100795.56;5072972;28;20049;-71
2022/01/17 02:44:46;;;;;;;25.80;12.10;;;;;;;2.46;100.00;100783.31;5073310;28;20045;-73
2022/01/17 02:47:17;;;;;;;20.60;10.98;;;;;;;2.49;100.00;100782.38;5072867;28;20444;-70
2022/01/17 02:49:46;;;;;;;18.13;9.23;;;;;;;2.49;100.00;100771.84;5072518;28;20033;-72
2022/01/17 02:52:15;;;;;;;21.50;11.20;;;;;;;2.45;100.00;100770.19;5072890;28;20080;-72
2022/01/17 02:54:44;;;;;;;18.05;9.18;;;;;;;2.50;100.00;100757.78;5073073;28;20132;-72
2022/01/17 02:57:12;;;;;;;20.67;10.52;;;;;;;2.54;100.00;100760.34;5072820;28;20090;-72
2022/01/17 02:59:40;;;;;;;19.65;9.70;;;;;;;2.55;100.00;100753.31;5072910;28;20452;-70
2022/01/17 03:02:10;;;;;;;17.70;9.55;;;;;;;2.60;100.00;100759.34;5073070;28;20443;-69
2022/01/17 03:04:39;;;;;;;17.75;9.95;;;;;;;2.60;100.00;100764.59;5072974;28;20479;-70
2022/01/17 03:07:07;;;;;;;19.45;10.20;;;;;;;2.60;100.00;100764.59;5072657;28;20052;-71
2022/01/17 03:09:45;;;;;;;19.35;10.15;;;;;;;2.63;100.00;100764.56;5072952;28;20041;-70
2022/01/17 03:12:14;;;;;;;17.60;10.07;;;;;;;2.66;100.00;100759.22;5072764;28;20484;-70
2022/01/17 03:14:43;;;;;;;17.80;9.38;;;;;;;2.63;100.00;100759.31;5072552;28;20041;-71
2022/01/17 03:17:11;;;;;;;20.20;9.32;;;;;;;2.72;100.00;100751.22;5072656;28;20051;-70
2022/01/17 03:19:39;;;;;;;14.95;6.95;;;;;;;2.70;100.00;100739.84;5072887;28;20047;-71
2022/01/17 03:22:07;;;;;;;17.52;9.10;;;;;;;2.67;100.00;100758.34;5054568;28;20566;-71
2022/01/17 03:24:37;;;;;;;15.30;8.52;;;;;;;2.78;100.00;100763.38;5072809;28;20474;-71
2022/01/17 03:27:05;;;;;;;15.48;8.77;;;;;;;2.83;100.00;100751.88;5072204;28;20045;-70
2022/01/17 03:29:34;;;;;;;14.32;7.32;;;;;;;2.87;100.00;100748.25;5072819;28;20428;-71
2022/01/17 03:32:02;;;;;;;15.05;8.55;;;;;;;2.80;100.00;100738.75;5054471;28;20481;-74
2022/01/17 03:34:30;;;;;;;11.57;5.82;;;;;;;2.89;100.00;100740.31;5072269;28;20045;-70
2022/01/17 03:36:58;;;;;;;17.27;8.57;;;;;;;2.93;100.00;100741.13;5072450;28;20130;-71
2022/01/17 03:39:26;;;;;;;13.57;7.15;;;;;;;2.90;100.00;100746.47;5072424;28;20041;-72
2022/01/17 03:41:56;;;;;;;13.82;7.78;;;;;;;2.93;100.00;100767.50;5072704;28;20036;-70
2022/01/17 03:44:24;;;;;;;10.45;5.28;;;;;;;3.04;100.00;100769.00;5072299;28;20098;-70
2022/01/17 03:46:53;;;;;;;14.32;8.30;;;;;;;3.03;100.00;100759.34;5072814;28;20440;-71
2022/01/17 03:49:21;;;;;;;16.08;8.55;;;;;;;2.98;100.00;100749.78;5072299;28;20047;-70
2022/01/17 03:51:49;;;;;;;16.73;8.25;;;;;;;2.93;100.00;100746.41;5072301;28;20077;-71
2022/01/17 03:54:20;;;;;;;15.32;7.78;;;;;;;2.91;100.00;100742.94;5072166;28;20492;-71
2022/01/17 03:56:48;;;;;;;16.60;7.93;;;;;;;2.85;100.00;100739.53;5072352;28;20037;-70
2022/01/17 03:59:17;;;;;;;16.40;7.70;;;;;;;2.86;100.00;100730.72;5072175;28;20040;-70
2022/01/17 04:01:46;;;;;;;15.75;7.70;;;;;;;2.87;100.00;100736.84;5073687;28;20051;-70
2022/01/17 04:04:14;;;;;;;14.40;7.53;;;;;;;2.87;100.00;100750.88;5075537;28;20094;-70
2022/01/17 04:06:42;;;;;;;16.75;8.27;;;;;;;2.98;100.00;100744.53;5076159;28;20045;-71
2022/01/17 04:09:11;;;;;;;14.90;6.53;;;;;;;2.96;100.00;100741.94;5075704;28;20091;-74
2022/01/17 04:11:39;;;;;;;14.63;7.40;;;;;;;3.01;100.00;100760.28;5057965;28;20090;-75
2022/01/17 04:14:09;;;;;;;12.35;6.45;;;;;;;3.09;100.00;100763.63;5075305;28;20481;-75
2022/01/17 04:16:38;;;;;;;14.25;5.80;;;;;;;3.08;100.00;100751.34;5075872;28;20047;-74
2022/01/17 04:19:09;;;;;;;12.63;7.03;;;;;;;3.06;100.00;100756.66;5075551;28;20047;-75
2022/01/17 04:21:39;;;;;;;14.57;7.50;;;;;;;3.08;100.00;100760.09;5075838;28;20044;-74
2022/01/17 04:24:08;;;;;;;14.48;7.50;;;;;;;3.00;100.00;100754.16;5075444;28;20102;-75
2022/01/17 04:26:36;;;;;;;14.90;7.70;;;;;;;3.06;100.00;100767.19;5075856;28;20072;-75
2022/01/17 04:29:04;;;;;;;13.65;6.90;;;;;;;3.05;100.00;100761.94;5075705;28;20040;-72
2022/01/17 04:31:33;;;;;;;13.27;7.13;;;;;;;3.05;100.00;100759.31;5075705;28;20181;-72
2022/01/17 04:34:03;;;;;;;12.07;6.47;;;;;;;3.07;100.00;100744.34;5075305;28;20063;-72
2022/01/17 04:36:31;;;;;;;14.23;7.60;;;;;;;3.08;100.00;100735.53;5074940;28;20558;-72
2022/01/17 04:38:59;;;;;;;13.82;7.30;;;;;;;2.94;100.00;100738.47;5075189;28;20085;-72
2022/01/17 04:41:36;;;;;;;15.55;7.68;;;;;;;3.07;100.00;100757.50;5074873;28;20443;-71
2022/01/17 04:46:48;;;;;;;16.48;8.05;;;;;;;3.14;100.00;100748.56;5056629;28;20451;-72
2022/01/17 04:49:18;;;;;;;15.18;8.18;;;;;;;3.13;100.00;100744.22;5074838;28;20048;-72
2022/01/17 04:51:52;;;;;;;15.38;7.60;;;;;;;2.92;100.00;100756.09;5075291;28;20051;-71
2022/01/17 04:54:39;;;;;;;19.15;8.45;;;;;;;2.94;100.00;100751.63;5057254;28;20045;-72
2022/01/17 04:57:07;;;;;;;17.42;8.30;;;;;;;3.01;100.00;100749.75;5074991;28;20469;-76
2022/01/17 04:59:36;;;;;;;18.88;9.05;;;;;;;3.13;100.00;100749.47;5075184;28;20044;-72
2022/01/17 05:02:04;;;;;;;18.45;9.00;;;;;;;3.01;100.00;100749.75;5075338;28;20040;-71
2022/01/17 05:04:34;;;;;;;19.15;8.88;;;;;;;3.05;100.00;100740.88;5075019;28;20090;-72
2022/01/17 05:07:03;;;;;;;17.50;7.95;;;;;;;3.12;100.00;100737.22;5075061;28;20047;-71
2022/01/17 05:09:31;;;;;;;17.50;9.55;;;;;;;3.15;100.00;100726.59;5074637;28;20126;-71
2022/01/17 05:11:59;;;;;;;17.38;8.45;;;;;;;3.03;100.00;100721.59;5074850;28;20036;-71
2022/01/17 05:14:28;;;;;;;17.92;9.00;;;;;;;2.96;100.00;100712.06;5074005;28;20240;-71
2022/01/17 05:17:03;;;;;;;17.38;9.75;;;;;;;3.06;100.00;100719.75;5074776;28;20052;-72
2022/01/17 05:19:49;;;;;;;17.52;9.00;;;;;;;3.03;100.00;100713.69;5074555;28;20040;-71
2022/01/17 05:22:20;;;;;;;20.83;10.00;;;;;;;2.90;100.00;100714.88;5074512;28;20036;-72
2022/01/17 05:24:49;;;;;;;18.75;9.20;;;;;;;2.76;100.00;100715.13;5074798;28;20052;-71
2022/01/17 05:27:18;;;;;;;16.27;9.63;;;;;;;2.62;100.00;100710.16;5074875;28;20045;-71
2022/01/17 05:29:47;;;;;;;18.63;10.05;;;;;;;2.57;100.00;100719.91;5075484;28;20445;-71
2022/01/17 05:32:16;;;;;;;18.65;9.73;;;;;;;2.50;100.00;100715.66;5073831;28;20429;-72
2022/01/17 05:34:45;;;;;;;18.75;9.05;;;;;;;2.84;100.00;100715.84;5074065;28;20051;-72
2022/01/17 05:37:14;;;;;;;19.90;9.07;;;;;;;2.95;100.00;100720.88;5074112;28;20059;-72
2022/01/17 05:39:44;;;;;;;19.30;9.48;;;;;;;3.11;100.00;100727.56;5074494;28;20119;-72
2022/01/17 05:42:17;;;;;;;16.65;9.15;;;;;;;3.05;100.00;100725.06;5074180;28;20040;-70
2022/01/17 05:44:47;;;;;;;15.02;8.75;;;;;;;3.12;100.00;100716.97;5056830;28;20070;-72
2022/01/17 05:47:16;;;;;;;16.73;8.23;;;;;;;3.15;100.00;100718.69;5073856;28;20097;-73
2022/01/17 05:49:45;;;;;;;15.65;7.95;;;;;;;3.26;100.00;100714.03;5074069;28;20095;-71
2022/01/17 05:52:13;;;;;;;14.07;7.80;;;;;;;3.32;100.00;100713.03;5073464;28;20045;-71
2022/01/17 05:54:42;;;;;;;16.63;7.90;;;;;;;3.29;100.00;100716.63;5073900;28;20044;-72
2022/01/17 05:57:11;;;;;;;16.00;7.97;;;;;;;3.26;100.00;100718.44;5073890;28;20041;-70
2022/01/17 05:59:40;;;;;;;14.52;7.80;;;;;;;3.29;100.00;100703.44;5073900;28;20158;-71
2022/01/17 06:02:08;;;;;;;14.35;7.65;;;;;;;3.37;100.00;100711.13;5073835;28;20097;-71
2022/01/17 06:04:37;;;;;;;12.93;7.68;;;;;;;3.35;100.00;100716.44;5073116;28;20041;-73
2022/01/17 06:07:06;;;;;;;13.50;7.22;;;;;;;3.33;100.00;100704.22;5073836;28;20072;-71
2022/01/17 06:09:34;;;;;;;15.77;7.60;;;;;;;3.21;100.00;100715.06;5073386;28;20037;-74
2022/01/17 06:12:03;;;;;;;14.27;7.18;;;;;;;3.34;100.00;100709.44;5073598;28;20370;-73
2022/01/17 06:14:33;;;;;;;11.15;6.50;;;;;;;3.40;100.00;100708.44;5055438;28;20040;-71
2022/01/17 06:17:01;;;;;;;13.40;7.20;;;;;;;3.39;100.00;100697.03;5073177;28;20090;-70
2022/01/17 06:19:31;;;;;;;15.07;6.53;;;;;;;3.51;100.00;100697.63;5073142;28;20123;-72
2022/01/17 06:22:00;;;;;;;13.38;7.15;;;;;;;3.54;100.00;100703.69;5073711;28;20044;-72
2022/01/17 06:24:28;;;;;;;15.07;6.70;;;;;;;3.65;100.00;100687.59;5054694;28;20451;-72
2022/01/17 06:26:58;;;;;;;10.77;6.00;;;;;;;3.63;100.00;100687.66;5073496;28;20055;-72
2022/01/17 06:29:27;;;;;;;13.35;6.25;;;;;;;3.70;100.00;100688.38;5073119;28;20051;-72
2022/01/17 06:31:56;;;;;;;14.35;6.85;;;;;;;3.66;100.00;100686.69;5073085;28;20041;-72
2022/01/17 06:34:45;;;;;;;13.02;6.03;;;;;;;3.77;100.00;100684.69;5073533;28;20041;-72
2022/01/17 06:37:14;;;;;;;11.00;5.38;;;;;;;3.88;100.00;100681.75;5073383;28;20057;-71
2022/01/17 06:39:43;;;;;;;11.57;5.82;;;;;;;3.82;100.00;100685.41;5072969;28;20098;-71
2022/01/17 06:42:11;;;;;;;11.73;6.43;;;;;;;3.79;100.00;100682.88;5073392;28;20400;-71
2022/01/17 06:44:39;;;;;;;10.90;5.93;;;;;;;3.82;100.00;100666.06;5073041;28;20481;-71
2022/01/17 06:47:09;;;;;;;12.00;6.60;;;;;;;3.89;100.00;100655.31;5055187;28;20048;-72
2022/01/17 06:49:40;;;;;;;11.98;5.97;;;;;;;4.00;100.00;100670.88;5055187;28;20059;-71
2022/01/17 06:52:08;;;;;;;10.38;5.53;;;;;;;4.04;100.00;100691.00;5073099;28;20040;-72
2022/01/17 06:54:36;;;;;;;10.13;5.72;;;;;;;4.01;100.00;100688.44;5072932;28;20044;-71
2022/01/17 06:57:05;;;;;;;11.98;6.60;;;;;;;4.01;100.00;100691.94;5073034;28;20052;-72
2022/01/17 06:59:36;;;;;;;12.10;6.07;;;;;;;4.03;100.00;100686.63;5072872;28;20392;-72
2022/01/17 07:02:04;;;;;;;14.45;6.38;;;;;;;4.02;100.00;100683.13;5073188;28;20041;-70
2022/01/17 07:04:34;;;;;;;12.00;5.97;;;;;;;4.09;100.00;100664.50;5072513;28;20055;-70
2022/01/17 07:07:03;;;;;;;10.35;5.22;;;;;;;4.07;100.00;100671.59;5072700;28;20169;-70
2022/01/17 07:09:31;;;;;;;12.60;5.85;;;;;;;4.10;100.00;100658.28;5072823;28;20110;-70
2022/01/17 07:12:00;;;;;;;12.80;6.00;;;;;;;4.22;100.00;100645.63;5073068;28;20094;-70
2022/01/17 07:14:28;;;;;;;11.23;5.28;;;;;;;4.20;100.00;100628.09;5055034;28;20378;-70
2022/01/17 07:16:57;;;;;;;10.43;5.22;;;;;;;4.30;100.00;100626.91;5074431;28;20151;-70
2022/01/17 07:19:26;;;;;;;10.65;5.50;;;;;;;4.34;100.00;100638.25;5077506;28;20090;-71
2022/01/17 07:21:55;;;;;;;10.30;4.93;;;;;;;4.33;100.00;100645.31;5072950;28;20056;-71
2022/01/17 07:24:38;;;;;;;9.85;5.72;;;;;;;4.41;100.00;100647.75;5072354;28;20118;-71
2022/01/17 07:27:07;;;;;;;9.70;5.05;;;;;;;4.42;100.00;100658.25;5072926;28;20090;-72
2022/01/17 07:29:35;;;;;;;9.13;4.53;;;;;;;4.40;100.00;100668.00;5072502;28;20036;-70
2022/01/17 07:32:04;;;;;;;10.35;4.93;;;;;;;4.44;100.00;100684.63;5072265;28;20044;-70
2022/01/17 07:34:32;;;;;;;11.18;5.20;;;;;;;4.47;100.00;100690.69;5072610;28;20040;-70
2022/01/17 07:37:02;;;;;;;8.70;4.75;;;;;;;4.52;100.00;100707.28;5075988;28;20048;-70
2022/01/17 07:39:30;;;;;;;10.18;4.70;;;;;;;4.58;100.00;100749.38;5076356;28;20048;-70
2022/01/17 07:41:59;;;;;;;9.60;4.78;;;;;;;4.55;100.00;100749.47;5076435;28;20447;-71
2022/01/17 07:44:29;;;;;;;5.57;3.15;;;;;;;4.64;100.00;100779.22;5071287;28;20051;-71
2022/01/17 07:47:00;;;;;;;10.02;4.97;;;;;;;4.57;100.00;100768.78;5074902;28;20048;-70
2022/01/17 07:49:29;;;;;;;9.93;4.55;;;;;;;4.58;100.00;100765.25;5076373;28;20044;-72
2022/01/17 07:52:00;;;;;;;8.25;4.22;;;;;;;4.52;100.00;100723.13;5076388;28;20083;-72
2022/01/17 07:54:43;;;;;;;8.32;3.72;;;;;;;4.54;100.00;100681.69;5076026;28;20040;-70
2022/01/17 07:57:12;;;;;;;9.32;5.30;;;;;;;4.57;100.00;100680.75;5074664;28;20094;-71
2022/01/17 07:59:41;;;;;;;5.50;3.22;;;;;;;4.63;100.00;100663.81;5075902;28;20040;-71
2022/01/17 08:02:10;;;;;;;8.18;3.70;;;;;;;4.62;100.00;100665.59;5076454;28;20059;-70
2022/01/17 08:04:38;;;;;;;9.93;5.18;;;;;;;4.57;100.00;100673.69;5075539;28;20040;-70
2022/01/17 08:07:07;;;;;;;9.32;4.80;;;;;;;4.68;100.00;100678.66;5074394;28;20447;-70
2022/01/17 08:09:37;;;;;;;8.73;4.28;;;;;;;4.66;100.00;100664.63;5075798;28;20048;-71
2022/01/17 08:12:07;;;;;;;8.93;4.97;;;;;;;4.67;100.00;100647.00;5076005;28;20044;-70
2022/01/17 08:14:36;;;;;;;8.38;5.07;;;;;;;4.69;100.00;100631.94;5074756;28;20049;-71
2022/01/17 08:17:05;;;;;;;8.18;4.65;;;;;;;4.65;100.00;100622.41;5075917;28;20040;-71
2022/01/17 08:19:36;;;;;;;9.48;4.15;;;;;;;4.67;100.00;100620.56;5075526;28;20044;-72
2022/01/17 08:22:06;;;;;;;8.35;4.32;;;;;;;4.70;100.00;100594.03;5074650;28;20048;-70
2022/01/17 08:24:37;;;;;;;6.47;3.60;;;;;;;4.71;100.00;100601.91;5075432;28;20067;-71
2022/01/17 08:27:06;;;;;;;5.28;2.75;;;;;;;4.75;100.00;100587.72;5075576;28;20102;-70
2022/01/17 08:29:36;;;;;;;10.82;5.00;;;;;;;4.78;100.00;100597.31;5075427;28;20130;-71
2022/01/17 08:32:06;;;;;;;7.47;3.40;;;;;;;4.86;100.00;100605.88;5075922;28;20037;-71
2022/01/17 08:34:35;;;;;;;8.05;4.50;;;;;;;4.85;100.00;100598.88;5075349;28;20060;-72
2022/01/17 08:37:05;;;;;;;8.00;4.65;;;;;;;4.89;100.00;100616.34;5075448;28;20060;-71
2022/01/17 08:39:33;;;;;;;6.22;3.35;;;;;;;4.92;100.00;100621.53;5075336;28;20041;-70
2022/01/17 08:42:10;;;;;;;7.75;4.47;;;;;;;4.97;100.00;100656.63;5075581;28;20041;-71
2022/01/17 08:44:39;;;;;;;8.82;4.20;;;;;;;5.00;100.00;100685.63;5075139;28;20447;-71
2022/01/17 08:47:07;;;;;;;10.57;3.80;;;;;;;4.99;100.00;100677.72;5074548;28;20055;-71
2022/01/17 08:49:35;;;;;;;8.10;4.50;;;;;;;4.98;100.00;100711.22;5074920;28;20048;-71
2022/01/17 08:52:04;;;;;;;6.72;4.18;;;;;;;5.02;100.00;100712.91;5075094;28;20048;-71
2022/01/17 08:54:32;;;;;;;8.80;4.03;;;;;;;5.04;100.00;100694.34;5075235;28;20043;-71
2022/01/17 08:57:03;;;;;;;10.75;4.38;;;;;;;5.05;100.00;100665.19;5075175;28;20044;-71
2022/01/17 08:59:31;;;;;;;12.02;4.75;;;;;;;5.12;100.00;100672.03;5074877;28;20120;-71
2022/01/17 09:02:00;;;;;;;7.85;3.03;;;;;;;5.16;100.00;100641.94;5075220;28;20053;-71
2022/01/17 09:04:28;;;;;;;9.52;3.88;;;;;;;5.12;100.00;100650.88;5074565;28;20053;-71
2022/01/17 09:06:56;;;;;;;8.55;4.45;;;;;;;5.08;100.00;100646.59;5075075;28;20044;-71
2022/01/17 09:09:24;;;;;;;8.82;4.07;;;;;;;5.05;100.00;100638.75;5075021;28;20049;-71
2022/01/17 09:11:53;;;;;;;8.10;4.38;;;;;;;5.10;100.00;100634.16;5075045;28;20119;-70
2022/01/17 09:14:22;;;;;;;8.82;4.97;;;;;;;5.13;100.00;100609.44;5074578;28;20095;-70
2022/01/17 09:16:51;;;;;;;8.85;4.32;;;;;;;5.09;100.00;100623.66;5073353;28;20045;-70
2022/01/17 09:19:19;;;;;;;7.78;4.75;;;;;;;5.11;100.00;100616.53;5074818;28;20493;-70
2022/01/17 09:21:47;;;;;;;10.02;4.70;;;;;;;5.21;100.00;100609.16;5073535;28;20158;-71
2022/01/17 09:24:15;;;;;;;9.98;4.93;;;;;;;5.29;100.00;100599.19;5074889;28;20473;-70
2022/01/17 09:26:45;;;;;;;9.63;5.32;;;;;;;5.24;100.00;100586.16;5074163;28;20041;-71
2022/01/17 09:29:13;;;;;;;8.98;4.93;;;;;;;5.36;100.00;100596.31;5074654;28;20573;-70
2022/01/17 09:31:48;;;;;;;;;;;;;;;5.41;100.00;100590.88;5074945;28;20075;-71
2022/01/17 09:34:16;;;;;;;9.63;5.28;;;;;;;5.38;100.00;100588.31;5074264;28;20331;-70
2022/01/17 09:36:45;;;;;;;10.95;5.45;;;;;;;5.41;100.00;100551.19;5074085;28;20106;-70
2022/01/17 09:39:13;;;;;;;5.85;2.95;;;;;;;5.40;100.00;100528.28;5074191;28;20090;-71
2022/01/17 09:41:44;;;;;;;8.15;4.55;;;;;;;5.43;100.00;100528.19;5073815;28;20044;-71
2022/01/17 09:44:12;;;;;;;8.15;4.20;;;;;;;5.41;100.00;100524.75;5074438;28;20041;-71
2022/01/17 09:46:44;;;;;;;7.20;3.47;;;;;;;5.45;100.00;100514.00;5073711;28;20408;-69
2022/01/17 09:49:21;;;;;;;10.02;4.82;;;;;;;5.46;100.00;100496.34;5074392;28;20047;-71
2022/01/17 09:54:46;;;;;;;9.27;4.63;;;;;;;5.47;100.00;100482.19;5060727;28;20152;-70
2022/01/17 09:57:18;;;;;;;8.93;4.50;;;;;;;5.48;100.00;100502.44;5073728;28;20072;-70
2022/01/17 09:59:46;;;;;;;6.93;3.67;;;;;;;5.35;100.00;100499.34;5072759;28;20040;-71
2022/01/17 10:02:16;;;;;;;9.80;5.25;;;;;;;5.32;100.00;100488.91;5073609;28;20076;-71
2022/01/17 10:04:47;;;;;;;10.60;4.78;;;;;;;5.35;100.00;100487.91;5073522;28;20051;-70
2022/01/17 10:07:15;;;;;;;10.00;5.63;;;;;;;5.31;100.00;100487.16;5073748;28;20032;-70
2022/01/17 10:09:55;;;;;;;7.93;3.25;;;;;;;5.29;100.00;100480.19;5073601;28;20044;-70
2022/01/17 10:12:23;;;;;;;7.28;3.90;;;;;;;5.28;100.00;100483.75;5073936;28;20044;-71
2022/01/17 10:14:59;;;;;;;9.85;5.47;;;;;;;5.25;100.00;100497.09;5073168;28;20117;-71
2022/01/17 10:17:43;;;;;;;8.98;5.00;;;;;;;5.24;100.00;100488.28;5073694;28;20037;-71
2022/01/17 10:20:16;;;;;;;10.43;5.50;;;;;;;5.17;100.00;100484.13;5075049;28;20045;-71
2022/01/17 10:22:51;;;;;;;6.57;3.77;;;;;;;5.12;100.00;100460.50;5073583;28;20041;-70
2022/01/17 10:25:29;;;;;;;12.02;5.05;;;;;;;5.07;100.00;100459.78;5073937;28;20066;-70
2022/01/17 10:28:34;;;;;;;12.07;6.20;;;;;;;5.05;100.00;100439.59;5073505;28;20094;-71
2022/01/17 10:34:53;;;;;;;9.10;4.57;;;;;;;5.07;100.00;100430.69;5074017;28;20098;-70
2022/01/17 10:36:59;;;;;;;11.50;6.53;;;;;;;5.08;100.00;100421.84;5073576;28;20106;-72
2022/01/17 10:39:28;;;;;;;8.10;4.22;;;;;;;5.07;100.00;100414.81;5073538;28;20041;-71
2022/01/17 10:41:56;;;;;;;10.88;6.25;;;;;;;5.04;100.00;100425.50;5073235;28;20094;-70
2022/01/17 10:44:34;;;;;;;11.38;6.28;;;;;;;5.11;100.00;100428.78;5074133;28;20044;-70
2022/01/17 10:47:23;;;;;;;10.45;5.57;;;;;;;5.18;100.00;100404.72;5072977;28;20520;-71
2022/01/17 10:49:56;;;;;;;9.60;5.05;;;;;;;5.20;100.00;100409.97;5072902;28;20128;-71
2022/01/17 10:52:31;;;;;;;15.73;6.13;;;;;;;5.21;100.00;100400.25;5073415;28;20045;-71
2022/01/17 10:55:05;;;;;;;11.30;5.65;;;;;;;5.19;100.00;100413.53;5072776;28;20052;-70
2022/01/17 10:57:35;;;;;;;12.55;6.60;;;;;;;5.21;100.00;100400.25;5073244;28;20092;-72
2022/01/17 11:00:08;;;;;;;12.45;6.40;;;;;;;5.21;100.00;100389.66;5072909;28;20127;-72
2022/01/17 11:02:37;;;;;;;;;;;;;;;5.20;100.00;100364.13;5073589;28;20477;-71
2022/01/17 11:05:07;;;;;;;10.27;5.22;;;;;;;5.15;100.00;100349.31;5072914;28;19921;-72
2022/01/17 11:07:41;;;;;;;10.02;5.90;;;;;;;5.21;100.00;100360.56;5073393;28;20098;-70
2022/01/17 11:10:18;;;;;;;13.88;6.68;;;;;;;5.27;100.00;100363.88;5073198;28;20450;-71
2022/01/17 11:12:47;;;;;;;10.98;4.25;;;;;;;5.35;100.00;100364.44;5077173;28;20051;-70
2022/01/17 11:15:16;;;;;;;12.90;6.22;;;;;;;5.37;100.00;100365.25;5077367;28;20469;-70
2022/01/17 11:17:50;;;;;;;13.77;4.55;;;;;;;5.50;100.00;100328.63;5076567;28;20060;-70
2022/01/17 11:20:20;;;;;;;9.32;4.63;;;;;;;5.60;100.00;100324.72;5077268;28;20119;-70
2022/01/17 11:22:52;;;;;;;6.85;3.17;;;;;;;5.69;100.00;100302.28;5076855;28;20136;-71
2022/01/17 11:25:23;;;;;;;7.70;3.78;;;;;;;5.77;100.00;100302.88;5077238;28;20123;-71
2022/01/17 11:27:52;;;;;;;6.75;3.60;;;;;;;5.81;100.00;100309.78;5076523;28;20485;-71
2022/01/17 11:30:21;;;;;;;8.02;4.65;;;;;;;5.87;100.00;100295.41;5076400;28;20076;-72
2022/01/17 11:32:54;;;;;;;5.82;2.45;;;;;;;5.91;100.00;100289.13;5076611;28;20086;-70
2022/01/17 11:35:24;;;;;;;7.57;3.03;;;;;;;5.98;100.00;100295.88;5077055;28;20045;-71
2022/01/17 11:37:56;;;;;;;5.85;2.63;;;;;;;5.99;100.00;100319.66;5074707;28;20060;-71
2022/01/17 11:40:31;;;;;;;6.65;2.97;;;;;;;6.02;100.00;100292.19;5076837;28;20436;-70
2022/01/17 11:43:01;;;;;;;9.13;2.97;;;;;;;6.09;100.00;100280.44;5076444;28;20154;-71
2022/01/17 11:45:36;;;;;;;7.53;2.95;;;;;;;6.17;100.00;100282.75;5076677;28;20052;-70
2022/01/17 11:48:25;;;;;;;8.15;3.05;;;;;;;6.19;100.00;100302.97;5076302;28;20054;-70
2022/01/17 11:50:56;;;;;;;6.70;3.10;;;;;;;6.19;100.00;100307.41;5076155;28;20044;-70
2022/01/17 11:53:54;;;;;;;4.50;2.28;;;;;;;6.17;100.00;100317.16;5076323;28;20093;-71
2022/01/17 11:56:41;;;;;;;3.97;2.15;;;;;;;6.12;100.00;100325.31;5076048;28;20476;-70